• Join FlightAware (Why Join?)
  • Login
  • US Flag 
12:01AM EDT


 

Airport Tracker/Info


-or-


 

Live Flight TrackerFlight Track Log ✈ CDG4604 ✈ 30-Jun-2013 ✈ ZSPD / PVG - ZSQD / TAO

Flight Track Log - Related Links

Times and Time Zones

All times are in EDT time to prevent confusion due to time zone crossing. See the CDG4604 flight status page for this flight to view local times or setup timezone preferences in your user account.

Time Position Orientation Groundspeed Altitude Reporting Facility
EDT Latitude Longitude Course Direction KTS MPH feet Rate Location/Type
11:52AM 30.9700 121.8660 132° Southeast 283 326 7,200  Level FlightAware
11:53AM 30.9980 121.9660 72° East 307 353 11,100 3,060 Climbing FlightAware
11:53AM 31.0130 121.9690 10° North 304 350 11,600 3,000 Climbing FlightAware
11:54AM 31.0540 121.9580 347° North 305 351 13,100 2,880 Climbing FlightAware
11:54AM 31.1100 121.9390 344° North 317 365 15,000 1,440 Climbing FlightAware
11:57AM 31.4990 121.8274 346° North  Level Estimated
11:57AM 31.3960 121.8430 346° North 353 406 18,700  Level FlightAware
11:58AM 31.4610 121.8350 354° North 352 405 18,700 60 Level FlightAware
11:58AM 31.5110 121.8290 354° North 355 409 18,800 1,440 Climbing FlightAware
11:59AM 31.5760 121.8210 354° North 356 410 20,400 2,460 Climbing FlightAware
11:59AM 31.5990 121.8190 356° North 356 410 21,100 2,760 Climbing FlightAware
12:04PM 32.2995 121.6123 346° North  Level Estimated
12:05PM 32.4696 121.5616 346° North  Level Estimated
12:06PM 32.6397 121.5107 346° North  Level Estimated
12:07PM 32.8098 121.4596 346° North  Level Estimated
12:08PM 32.9798 121.4083 346° North  Level Estimated
12:09PM 33.0635 121.3830 346° North  Level Estimated
12:10PM 33.1471 121.3577 346° North  Level Estimated
12:11PM 33.2307 121.3323 346° North  Level Estimated
12:12PM 33.3143 121.3068 346° North  Level Estimated
12:13PM 33.3979 121.2814 346° North  Level Estimated
12:14PM 33.4815 121.2558 346° North  Level Estimated
12:15PM 33.5651 121.2302 346° North  Level Estimated
12:16PM 33.6487 121.2046 346° North  Level Estimated
12:17PM 33.7323 121.1789 346° North  Level Estimated
12:18PM 33.8158 121.1532 346° North  Level Estimated
12:19PM 33.8994 121.1274 346° North  Level Estimated
12:20PM 33.9830 121.1016 346° North  Level Estimated
12:21PM 34.0665 121.0757 346° North  Level Estimated
12:22PM 34.1501 121.0498 346° North  Level Estimated
12:23PM 34.2337 121.0238 346° North  Level Estimated
12:24PM 34.3172 120.9977 346° North  Level Estimated
12:25PM 34.4007 120.9716 346° North  Level Estimated
12:26PM 34.4843 120.9455 346° North  Level Estimated
12:27PM 34.5678 120.9193 346° North  Level Estimated
12:28PM 34.6513 120.8930 346° North  Level Estimated
12:29PM 34.7348 120.8667 345° North  Level Estimated
12:30PM 34.8184 120.8404 345° North  Level Estimated
12:31PM 34.9019 120.8140 345° North  Level Estimated
12:32PM 34.9854 120.7875 345° North  Level Estimated
12:33PM 35.0689 120.7610 345° North  Level Estimated
12:34PM 35.1523 120.7344 345° North  Level Estimated
12:35PM 35.2358 120.7078 345° North  Level Estimated
12:36PM 35.3193 120.6811 345° North  Level Estimated
12:37PM 35.4028 120.6544 345° North  Level Estimated
12:38PM 35.4862 120.6276 345° North  Level Estimated
12:39PM 35.5697 120.6007 345° North  Level Estimated
12:40PM 35.6531 120.5738 345° North  Level Estimated
12:41PM 35.7366 120.5469 345° North  Level Estimated
12:42PM 35.8200 120.5199 345° North  Level Estimated
12:43PM 35.9035 120.4928 345° North  Level Estimated
12:44PM 35.9869 120.4657 345° North  Level Estimated
12:45PM 36.0703 120.4385 345° North  Level Estimated
12:46PM 36.1538 120.4112 345° North  Level Estimated
12:47PM 36.2372 120.3839 345° North  Level Estimated
12:48PM 36.2661 120.3744 345° North  Level Estimated
12:49PM 36.2661 120.3744 238° Southwest  Level Estimated
12:50PM 36.2661 120.3744 238° Southwest  Level Estimated
12:51PM 36.2661 120.3744 238° Southwest  Level Estimated
12:52PM 36.2661 120.3744 238° Southwest  Level Estimated
12:53PM 36.2661 120.3744 238° Southwest  Level Estimated
12:54PM 36.2661 120.3744 238° Southwest  Level Estimated
12:55PM 36.2661 120.3744 238° Southwest  Level Estimated
12:56PM 36.2661 120.3744 238° Southwest  Level Estimated
12:57PM 36.2661 120.3744 238° Southwest  Level Estimated
12:58PM 36.2661 120.3744 238° Southwest  Level Estimated
12:59PM 36.2661 120.3744 238° Southwest  Level Estimated
01:00PM 36.2661 120.3744 238° Southwest  Level Estimated